Time;durP1;ratioP1;P1;durP2;ratioP2;P2;SDS_P1;SDS_P2;PMS_P1;PMS_P2;Temp;Humidity;BMP_temperature;BMP_pressure;BME280_temperature;BME280_humidity;BME280_pressure;Samples;Min_cycle;Max_cycle;Signal;HPM_P1;HPM_P2
2023/12/03 00:02:05;;;;;;;18.80;12.82;;;;;;;-1.99;81.75;98465.97;4971742;28;20031;-72
2023/12/03 00:04:31;;;;;;;18.60;14.32;;;;;;;-2.00;81.88;98459.03;4939808;28;20505;-72
2023/12/03 00:06:56;;;;;;;18.55;11.82;;;;;;;-1.98;81.88;98473.72;4967583;28;20018;-72
2023/12/03 00:09:21;;;;;;;17.05;14.90;;;;;;;-1.91;81.56;98473.94;4945460;28;20043;-71
2023/12/03 00:11:47;;;;;;;18.80;11.65;;;;;;;-2.00;81.87;98485.41;4967733;28;20114;-72
2023/12/03 00:14:12;;;;;;;18.23;12.77;;;;;;;-2.11;81.92;98483.91;4971952;28;20072;-72
2023/12/03 00:16:37;;;;;;;18.73;15.77;;;;;;;-1.94;81.83;98479.53;4948616;28;20070;-72
2023/12/03 00:19:03;;;;;;;19.65;11.95;;;;;;;-2.14;82.58;98473.66;4965878;28;20118;-72
2023/12/03 00:21:28;;;;;;;20.60;12.48;;;;;;;-2.21;82.28;98480.53;4973004;28;20070;-72
2023/12/03 00:23:54;;;;;;;17.50;14.75;;;;;;;-2.03;82.30;98486.56;4971597;28;20114;-72
2023/12/03 00:26:19;;;;;;;18.88;11.55;;;;;;;-2.23;82.32;98482.53;4947675;28;20053;-71
2023/12/03 00:28:45;;;;;;;17.83;16.00;;;;;;;-2.12;82.46;98482.25;4962439;28;20514;-72
2023/12/03 00:31:11;;;;;;;18.10;12.02;;;;;;;-2.34;82.32;98488.06;4952611;28;20034;-72
2023/12/03 00:33:36;;;;;;;14.82;11.45;;;;;;;-2.32;83.04;98496.66;4971614;28;20470;-72
2023/12/03 00:36:01;;;;;;;17.00;15.25;;;;;;;-2.12;81.98;98495.44;4969411;28;20062;-71
2023/12/03 00:38:52;;;;;;;18.77;12.27;;;;;;;-2.24;82.51;98499.34;4968392;28;20046;-72
2023/12/03 00:41:17;;;;;;;18.45;12.55;;;;;;;-2.27;81.99;98499.66;4974714;28;20043;-72
2023/12/03 00:43:43;;;;;;;17.45;11.15;;;;;;;-2.24;82.68;98504.63;4970891;28;20043;-72
2023/12/03 00:46:08;;;;;;;17.23;15.30;;;;;;;-2.13;82.99;98504.34;4970067;28;20567;-72
2023/12/03 00:48:59;;;;;;;16.98;14.23;;;;;;;-2.16;82.60;98509.94;4971868;28;20553;-72
2023/12/03 00:51:24;;;;;;;17.52;15.73;;;;;;;-2.21;82.66;98496.38;4929970;28;20034;-72
2023/12/03 00:53:49;;;;;;;19.27;11.75;;;;;;;-2.31;83.51;98514.94;4967415;28;20111;-71
2023/12/03 00:56:15;;;;;;;22.17;12.90;;;;;;;-2.41;82.85;98521.31;4968420;28;20038;-71
2023/12/03 00:58:40;;;;;;;18.48;15.75;;;;;;;-2.25;82.49;98508.22;4955331;28;20465;-71
2023/12/03 01:01:05;;;;;;;19.95;12.20;;;;;;;-2.46;82.83;98520.94;4971389;28;20485;-71
2023/12/03 01:03:31;;;;;;;16.83;12.32;;;;;;;-2.49;83.80;98519.44;4964620;28;20042;-71
2023/12/03 01:05:57;;;;;;;20.00;12.82;;;;;;;-2.64;83.46;98522.81;4963708;28;20439;-71
2023/12/03 01:08:22;;;;;;;17.67;14.75;;;;;;;-2.34;83.54;98531.09;4971461;28;20031;-71
2023/12/03 01:10:47;;;;;;;18.92;14.27;;;;;;;-2.32;83.22;98544.13;4971326;28;20077;-71
2023/12/03 01:13:13;;;;;;;17.55;12.40;;;;;;;-2.48;84.15;98549.28;4953603;28;20046;-72
2023/12/03 01:15:38;;;;;;;19.38;13.02;;;;;;;-2.57;83.39;98532.59;4945389;29;20125;-72
2023/12/03 01:18:03;;;;;;;18.10;12.18;;;;;;;-2.44;83.45;98550.63;4968623;28;20030;-72
2023/12/03 01:20:29;;;;;;;17.58;12.52;;;;;;;-2.41;83.72;98556.44;4971186;28;20039;-71
2023/12/03 01:22:54;;;;;;;18.83;12.50;;;;;;;-2.39;83.23;98569.44;4971293;28;20266;-72
2023/12/03 01:25:20;;;;;;;20.67;12.88;;;;;;;-2.49;83.38;98543.16;4971136;28;20479;-72
2023/12/03 01:27:45;;;;;;;18.75;16.80;;;;;;;-2.27;83.33;98552.41;4970864;28;20030;-72
2023/12/03 01:30:11;;;;;;;18.88;13.00;;;;;;;-2.29;83.19;98564.91;4961515;28;20058;-72
2023/12/03 01:32:36;;;;;;;19.30;12.63;;;;;;;-2.31;83.20;98572.16;4955009;28;20506;-72
2023/12/03 01:35:02;;;;;;;18.13;13.27;;;;;;;-2.24;83.06;98581.09;4971098;28;20035;-72
2023/12/03 01:37:27;;;;;;;17.65;12.13;;;;;;;-2.18;82.84;98577.84;4971945;28;20026;-72
2023/12/03 01:39:52;;;;;;;18.05;16.15;;;;;;;-1.95;82.93;98573.69;4960749;28;20129;-72
2023/12/03 01:42:19;;;;;;;20.67;14.15;;;;;;;-2.14;82.96;98579.16;4970867;28;20395;-71
2023/12/03 01:44:45;;;;;;;19.40;17.35;;;;;;;-1.90;82.80;98584.59;4960084;28;20050;-72
2023/12/03 01:47:10;;;;;;;23.05;14.00;;;;;;;-2.11;82.30;98584.16;4958082;28;20054;-72
2023/12/03 01:49:36;;;;;;;19.45;15.00;;;;;;;-1.92;82.52;98591.84;4974491;28;20039;-72
2023/12/03 01:52:02;;;;;;;21.70;13.90;;;;;;;-2.04;82.99;98573.78;4956297;28;20419;-72
2023/12/03 01:54:28;;;;;;;20.77;18.58;;;;;;;-1.74;82.16;98591.78;4974508;28;20475;-72
2023/12/03 01:56:53;;;;;;;21.85;15.35;;;;;;;-1.94;82.06;98588.56;4961451;28;20058;-72
2023/12/03 01:59:19;;;;;;;18.67;14.07;;;;;;;-2.04;82.17;98601.00;4974258;28;20124;-72
2023/12/03 02:01:44;;;;;;;19.33;14.35;;;;;;;-1.85;82.04;98599.97;4974252;28;20085;-72
2023/12/03 02:04:10;;;;;;;19.27;16.88;;;;;;;-1.84;81.70;98586.59;4974049;28;20513;-72
2023/12/03 02:06:35;;;;;;;22.40;15.38;;;;;;;-1.80;81.80;98603.81;4974091;28;20030;-72
2023/12/03 02:09:01;;;;;;;20.77;12.80;;;;;;;-1.85;81.60;98602.59;4974095;28;20045;-72
2023/12/03 02:11:26;;;;;;;18.48;14.32;;;;;;;-1.78;81.95;98601.84;4974093;28;20077;-72
2023/12/03 02:13:51;;;;;;;20.00;17.83;;;;;;;-1.70;81.16;98598.38;4951813;29;20047;-72
2023/12/03 02:16:17;;;;;;;21.60;18.20;;;;;;;-1.70;81.49;98593.94;4966715;28;20026;-72
2023/12/03 02:18:43;;;;;;;21.85;14.18;;;;;;;-1.88;81.39;98603.75;4957862;28;20114;-71
2023/12/03 02:21:08;;;;;;;19.65;14.73;;;;;;;-1.89;81.50;98612.63;4974166;28;20027;-71
2023/12/03 02:23:34;;;;;;;20.80;14.50;;;;;;;-1.95;81.73;98612.44;4949707;29;20483;-72
2023/12/03 02:25:59;;;;;;;18.50;13.85;;;;;;;-1.81;81.66;98609.22;4952789;28;20119;-70
2023/12/03 02:28:25;;;;;;;20.73;18.27;;;;;;;-1.68;81.71;98613.09;4969529;28;20491;-71
2023/12/03 02:30:50;;;;;;;20.60;13.43;;;;;;;-1.90;81.78;98618.06;4973750;28;20022;-71
2023/12/03 02:33:16;;;;;;;20.48;17.98;;;;;;;-1.71;81.35;98618.69;4957508;28;20038;-71
2023/12/03 02:35:41;;;;;;;20.85;14.45;;;;;;;-1.94;81.54;98606.19;4970845;28;20041;-71
2023/12/03 02:38:07;;;;;;;22.88;19.48;;;;;;;-1.74;81.28;98618.16;4973283;28;20039;-71
2023/12/03 02:40:33;;;;;;;22.13;16.10;;;;;;;-1.75;81.16;98622.63;4978425;28;20026;-71
2023/12/03 02:42:59;;;;;;;21.05;14.05;;;;;;;-1.84;81.02;98626.19;4957155;28;20038;-72
2023/12/03 02:45:24;;;;;;;19.95;17.75;;;;;;;-1.69;81.06;98627.28;4957408;28;20033;-71
2023/12/03 02:47:50;;;;;;;22.70;15.02;;;;;;;-1.94;80.96;98620.22;4973114;28;20491;-72
2023/12/03 02:50:15;;;;;;;22.85;14.73;;;;;;;-1.89;81.34;98631.09;4973338;28;20073;-71
2023/12/03 02:52:41;;;;;;;25.13;14.50;;;;;;;-1.94;81.71;98622.03;4972459;28;20035;-71
2023/12/03 02:55:07;;;;;;;23.58;18.67;;;;;;;-1.72;81.39;98627.59;4956812;28;20391;-70
2023/12/03 02:57:32;;;;;;;22.73;17.88;;;;;;;-1.78;81.18;98637.94;4972849;28;20065;-70
2023/12/03 02:59:57;;;;;;;21.63;15.80;;;;;;;-1.97;81.09;98636.34;4955357;28;20026;-71
2023/12/03 03:02:23;;;;;;;22.10;15.00;;;;;;;-2.03;81.14;98647.50;4956907;28;20494;-71
2023/12/03 03:04:48;;;;;;;24.08;15.35;;;;;;;-2.06;81.50;98644.34;4954572;28;20022;-71
2023/12/03 03:07:14;;;;;;;22.20;16.77;;;;;;;-2.06;81.55;98634.63;4972730;28;20034;-71
2023/12/03 03:09:39;;;;;;;24.55;15.13;;;;;;;-2.09;81.21;98634.94;4973086;28;20023;-71
2023/12/03 03:12:05;;;;;;;27.15;16.48;;;;;;;-1.96;81.12;98635.34;4965403;28;20151;-71
2023/12/03 03:14:30;;;;;;;23.58;15.82;;;;;;;-2.02;81.22;98635.16;4951785;28;20031;-71
2023/12/03 03:16:55;;;;;;;23.75;20.40;;;;;;;-1.89;81.20;98625.81;4970100;28;20084;-71
2023/12/03 03:19:21;;;;;;;25.08;17.70;;;;;;;-1.92;80.61;98638.53;4967873;28;20035;-72
2023/12/03 03:21:46;;;;;;;23.70;17.23;;;;;;;-1.94;80.90;98643.13;4971054;28;20106;-71
2023/12/03 03:24:12;;;;;;;23.70;16.17;;;;;;;-1.99;81.08;98646.22;4971522;28;20418;-72
2023/12/03 03:26:39;;;;;;;23.58;15.55;;;;;;;-2.06;81.36;98626.72;4969515;28;20407;-72
2023/12/03 03:29:06;;;;;;;23.38;20.88;;;;;;;-1.88;81.05;98638.06;4971174;28;20030;-72
2023/12/03 03:31:31;;;;;;;27.38;16.88;;;;;;;-2.04;81.04;98632.66;4969300;28;20114;-72
2023/12/03 03:33:57;;;;;;;22.40;20.10;;;;;;;-1.90;81.06;98640.03;4969164;28;20109;-72
2023/12/03 03:36:22;;;;;;;24.15;15.73;;;;;;;-2.05;81.08;98646.84;4952974;28;20043;-72
2023/12/03 03:38:49;;;;;;;24.38;16.88;;;;;;;-2.07;81.36;98651.44;4949662;28;20097;-72
2023/12/03 03:41:14;;;;;;;23.70;21.13;;;;;;;-1.83;80.57;98651.63;4974998;28;20043;-72
2023/12/03 03:43:39;;;;;;;23.67;21.27;;;;;;;-1.84;80.46;98644.66;4937715;28;20119;-71
2023/12/03 03:46:05;;;;;;;24.90;15.77;;;;;;;-1.96;80.75;98653.00;4948832;28;20406;-70
2023/12/03 03:48:30;;;;;;;27.58;16.80;;;;;;;-1.92;80.58;98651.72;4969318;28;20031;-71
2023/12/03 03:50:55;;;;;;;24.75;16.63;;;;;;;-1.95;80.36;98639.66;4963786;28;20046;-70
2023/12/03 03:53:21;;;;;;;24.67;16.30;;;;;;;-1.95;80.84;98658.13;4972535;28;20023;-71
2023/12/03 03:55:46;;;;;;;26.77;17.23;;;;;;;-1.99;81.02;98651.50;4970019;28;20415;-70
2023/12/03 03:58:12;;;;;;;25.40;22.70;;;;;;;-1.84;80.48;98652.59;4965484;28;20054;-71
2023/12/03 04:00:38;;;;;;;25.85;20.27;;;;;;;-1.92;80.22;98652.56;4969020;28;20046;-72
2023/12/03 04:03:03;;;;;;;26.73;20.25;;;;;;;-2.03;80.37;98652.78;4969527;28;20026;-72
2023/12/03 04:05:28;;;;;;;23.63;15.45;;;;;;;-2.22;80.76;98645.06;4969984;28;20042;-71
2023/12/03 04:07:54;;;;;;;25.65;17.75;;;;;;;-2.34;80.83;98633.94;4968282;28;20026;-71
2023/12/03 04:10:20;;;;;;;30.08;22.10;;;;;;;-2.43;80.92;98628.75;4949705;28;20137;-71
2023/12/03 04:12:46;;;;;;;28.73;17.27;;;;;;;-2.64;80.77;98634.34;4949497;28;20412;-71
2023/12/03 04:15:12;;;;;;;30.45;18.45;;;;;;;-2.61;81.02;98646.38;4971817;28;20054;-71
2023/12/03 04:17:37;;;;;;;29.35;19.50;;;;;;;-2.70;81.01;98629.66;4969703;28;20035;-71
2023/12/03 04:20:04;;;;;;;32.78;20.40;;;;;;;-2.69;80.44;98646.28;4939943;28;20034;-71
2023/12/03 04:22:29;;;;;;;30.38;26.67;;;;;;;-2.62;80.04;98639.44;4952102;28;20022;-73
2023/12/03 04:24:55;;;;;;;32.40;20.80;;;;;;;-2.81;80.34;98667.59;4954307;28;20066;-73
2023/12/03 04:27:21;;;;;;;33.20;19.75;;;;;;;-2.91;80.50;98664.19;4943052;28;20055;-72
2023/12/03 04:29:46;;;;;;;33.38;21.50;;;;;;;-2.84;80.90;98673.16;4969895;28;20049;-72
2023/12/03 04:32:12;;;;;;;33.75;20.02;;;;;;;-2.99;80.30;98666.72;4966065;28;20039;-72
2023/12/03 04:34:40;;;;;;;31.77;18.63;;;;;;;-3.00;80.79;98673.00;4971838;28;20049;-71
2023/12/03 04:37:06;;;;;;;34.17;28.73;;;;;;;-2.83;80.19;98680.09;4965393;28;20027;-72
2023/12/03 04:39:31;;;;;;;35.42;24.88;;;;;;;-2.99;80.43;98672.00;4971734;28;20050;-71
2023/12/03 04:41:56;;;;;;;36.33;19.60;;;;;;;-3.15;80.45;98677.06;4958744;28;20031;-72
2023/12/03 04:44:22;;;;;;;33.53;28.00;;;;;;;-2.86;80.05;98690.09;4967830;28;20502;-72
2023/12/03 04:46:48;;;;;;;32.33;19.38;;;;;;;-3.11;79.83;98686.38;4966940;28;20076;-71
2023/12/03 04:49:13;;;;;;;34.25;20.85;;;;;;;-3.10;80.67;98690.63;4970184;28;20038;-71
2023/12/03 04:51:39;;;;;;;34.10;23.35;;;;;;;-3.06;80.20;98683.28;4965288;28;20503;-70
2023/12/03 04:54:04;;;;;;;36.63;20.20;;;;;;;-3.15;80.26;98682.34;4950111;28;20227;-70
2023/12/03 04:56:30;;;;;;;34.75;22.20;;;;;;;-2.92;80.53;98698.59;4971286;28;20109;-70
2023/12/03 04:58:55;;;;;;;36.40;20.30;;;;;;;-3.00;79.94;98690.59;4965032;28;20045;-70
2023/12/03 05:01:21;;;;;;;37.72;21.02;;;;;;;-2.91;80.54;98708.97;4943194;28;20027;-70
2023/12/03 05:03:46;;;;;;;37.00;21.38;;;;;;;-2.88;80.74;98708.69;4953776;28;20100;-70
2023/12/03 05:06:12;;;;;;;35.38;19.98;;;;;;;-2.97;80.87;98712.22;4965633;28;20118;-71
2023/12/03 05:08:37;;;;;;;36.15;20.90;;;;;;;-3.04;81.28;98700.59;4970111;28;20057;-72
2023/12/03 05:11:04;;;;;;;33.80;26.40;;;;;;;-2.82;81.01;98708.09;4946646;28;20065;-71
2023/12/03 05:13:29;;;;;;;35.22;20.02;;;;;;;-2.94;80.84;98709.25;4970394;28;20042;-71
2023/12/03 05:15:55;;;;;;;32.65;19.50;;;;;;;-2.86;80.86;98695.38;4964692;28;20039;-71
2023/12/03 05:18:20;;;;;;;40.38;22.73;;;;;;;-2.75;80.44;98710.16;4972796;28;20042;-71
2023/12/03 05:20:46;;;;;;;36.78;21.70;;;;;;;-2.75;81.00;98702.25;4954352;28;20022;-72
2023/12/03 05:23:12;;;;;;;34.38;19.70;;;;;;;-2.85;80.59;98684.66;4972140;28;20503;-74
2023/12/03 05:25:37;;;;;;;40.03;26.05;;;;;;;-2.74;80.82;98680.16;4952052;28;20069;-73
2023/12/03 05:28:03;;;;;;;39.05;27.13;;;;;;;-2.71;80.96;98669.34;4957891;28;20038;-72
2023/12/03 05:30:29;;;;;;;40.67;24.20;;;;;;;-2.64;81.02;98686.22;4949684;28;20471;-72
2023/12/03 05:32:54;;;;;;;47.97;27.63;;;;;;;-2.69;81.38;98691.09;4974326;28;20046;-72
2023/12/03 05:35:19;;;;;;;45.70;35.17;;;;;;;-2.52;81.01;98685.03;4954948;28;20178;-72
2023/12/03 05:37:45;;;;;;;39.72;29.45;;;;;;;-2.72;81.17;98673.78;4968540;28;20050;-72
2023/12/03 05:40:11;;;;;;;42.20;23.60;;;;;;;-2.82;80.80;98689.66;4979494;28;20052;-72
2023/12/03 05:42:36;;;;;;;43.15;29.88;;;;;;;-2.74;81.10;98701.25;4956012;28;20035;-72
2023/12/03 05:45:03;;;;;;;105.25;60.92;;;;;;;-3.02;81.21;98713.63;4954796;28;20329;-72
2023/12/03 05:47:29;;;;;;;81.30;50.88;;;;;;;-3.01;81.12;98721.38;4973578;28;20109;-72
2023/12/03 05:49:56;;;;;;;44.78;27.73;;;;;;;-3.15;81.22;98713.94;4948067;29;20028;-73
2023/12/03 05:52:22;;;;;;;33.97;20.95;;;;;;;-3.17;80.99;98710.63;4955105;28;20037;-72
2023/12/03 05:54:47;;;;;;;39.03;24.88;;;;;;;-3.03;81.37;98718.06;4942044;28;20387;-71
2023/12/03 05:57:12;;;;;;;43.72;39.05;;;;;;;-2.88;80.78;98706.06;4937978;28;20042;-71
2023/12/03 05:59:38;;;;;;;57.90;47.47;;;;;;;-3.18;81.49;98703.72;4973035;28;20445;-72
2023/12/03 06:02:04;;;;;;;45.53;30.77;;;;;;;-3.03;80.99;98723.31;4973729;28;20038;-71
2023/12/03 06:04:30;;;;;;;34.88;27.83;;;;;;;-2.80;80.98;98719.31;4932782;28;20035;-72
2023/12/03 06:06:55;;;;;;;38.97;22.17;;;;;;;-2.92;81.07;98719.69;4969516;28;20058;-72
2023/12/03 06:09:20;;;;;;;41.10;28.20;;;;;;;-2.75;81.18;98721.50;4974001;28;20037;-70
2023/12/03 06:11:46;;;;;;;40.65;24.33;;;;;;;-2.93;80.97;98710.94;4951108;28;20474;-70
2023/12/03 06:14:12;;;;;;;38.35;22.85;;;;;;;-2.92;80.85;98715.22;4969092;28;20023;-71
2023/12/03 06:16:37;;;;;;;37.22;22.65;;;;;;;-2.83;81.04;98729.34;4975313;28;20039;-72
2023/12/03 06:19:02;;;;;;;37.88;22.55;;;;;;;-2.86;81.51;98733.09;4955226;28;20027;-71
2023/12/03 06:21:28;;;;;;;37.65;23.15;;;;;;;-2.85;81.26;98716.28;4957526;28;20053;-71
2023/12/03 06:23:54;;;;;;;40.28;24.23;;;;;;;-2.75;81.16;98725.97;4974799;28;20027;-72
2023/12/03 06:26:20;;;;;;;33.80;21.13;;;;;;;-2.70;81.10;98734.22;4971061;28;20035;-73
2023/12/03 06:28:46;;;;;;;37.20;23.63;;;;;;;-2.68;81.12;98719.94;4950893;29;20107;-73
2023/12/03 06:31:11;;;;;;;37.50;24.08;;;;;;;-2.74;81.17;98732.88;4970118;28;20402;-73
2023/12/03 06:33:37;;;;;;;36.75;22.00;;;;;;;-2.75;81.00;98725.97;4942626;28;20035;-73
2023/12/03 06:36:03;;;;;;;34.63;25.05;;;;;;;-2.66;80.75;98740.88;4973285;28;20110;-73
2023/12/03 06:38:28;;;;;;;37.47;21.98;;;;;;;-2.80;81.04;98734.28;4957192;28;20059;-72
2023/12/03 06:40:53;;;;;;;34.10;23.13;;;;;;;-2.74;81.15;98751.31;4973366;28;20066;-72
2023/12/03 06:43:19;;;;;;;38.55;24.17;;;;;;;-2.78;81.18;98743.69;4973132;28;20026;-73
2023/12/03 06:45:44;;;;;;;35.53;22.15;;;;;;;-2.76;80.78;98737.47;4973381;28;20030;-72
2023/12/03 06:48:09;;;;;;;38.08;27.58;;;;;;;-2.52;80.70;98753.56;4956910;28;20046;-73
2023/12/03 06:50:35;;;;;;;40.80;30.30;;;;;;;-2.44;80.69;98766.81;4967435;28;20038;-73
2023/12/03 06:53:00;;;;;;;42.85;33.72;;;;;;;-2.53;80.25;98747.47;4972973;28;20387;-73
2023/12/03 06:55:26;;;;;;;36.67;20.70;;;;;;;-2.66;80.37;98754.06;4973053;28;20155;-73
2023/12/03 06:57:51;;;;;;;35.28;20.85;;;;;;;-2.60;80.91;98772.75;4964719;28;20570;-73
2023/12/03 07:00:17;;;;;;;37.00;28.70;;;;;;;-2.31;80.54;98778.66;4954885;28;20077;-73
2023/12/03 07:02:43;;;;;;;35.95;21.40;;;;;;;-2.46;80.85;98776.69;4956852;28;20459;-72
2023/12/03 07:05:08;;;;;;;33.75;28.23;;;;;;;-2.26;80.73;98783.47;4972875;28;20035;-73
2023/12/03 07:07:34;;;;;;;38.25;22.65;;;;;;;-2.47;80.55;98781.13;4940419;28;20031;-73
2023/12/03 07:09:59;;;;;;;34.22;27.80;;;;;;;-2.37;80.63;98778.44;4956757;28;20041;-73
2023/12/03 07:12:24;;;;;;;38.15;22.83;;;;;;;-2.47;80.58;98788.19;4934320;28;20121;-73
2023/12/03 07:14:50;;;;;;;39.83;22.45;;;;;;;-2.41;80.83;98792.91;4952393;28;20133;-73
2023/12/03 07:17:15;;;;;;;36.90;21.95;;;;;;;-2.29;80.53;98797.00;4956109;28;20022;-73
2023/12/03 07:19:45;;;;;;;36.63;25.88;;;;;;;-2.19;80.93;98795.94;4972808;28;20039;-73
2023/12/03 07:22:10;;;;;;;43.45;26.42;;;;;;;-2.13;80.72;98807.72;4956917;28;20539;-76
2023/12/03 07:24:40;;;;;;;37.30;23.55;;;;;;;-2.08;80.62;98804.63;4940294;28;20039;-72
2023/12/03 07:27:07;;;;;;;35.95;21.30;;;;;;;-2.15;80.46;98793.84;4964200;28;20038;-73
2023/12/03 07:29:32;;;;;;;36.28;24.50;;;;;;;-2.00;80.60;98796.75;4972521;28;20435;-73
2023/12/03 07:31:58;;;;;;;35.15;30.40;;;;;;;-1.84;80.21;98812.75;4972420;28;20109;-72
2023/12/03 07:34:23;;;;;;;37.83;22.48;;;;;;;-1.98;80.12;98811.47;4972371;28;20027;-73
2023/12/03 07:36:49;;;;;;;36.75;25.83;;;;;;;-1.95;80.40;98821.72;4955618;28;20038;-73
2023/12/03 07:39:14;;;;;;;50.33;28.92;;;;;;;-2.00;80.27;98824.00;4954399;28;20102;-74
2023/12/03 07:41:39;;;;;;;43.35;24.40;;;;;;;-2.02;80.32;98822.47;4977273;28;20414;-74
2023/12/03 07:44:05;;;;;;;37.03;28.23;;;;;;;-1.93;80.12;98809.22;4972287;28;20018;-73
2023/12/03 07:46:32;;;;;;;34.15;27.30;;;;;;;-1.82;79.86;98816.91;4971762;28;20457;-74
2023/12/03 07:48:58;;;;;;;36.35;23.60;;;;;;;-1.92;79.75;98804.78;4972521;28;20411;-74
2023/12/03 07:51:23;;;;;;;42.30;23.33;;;;;;;-1.87;79.61;98829.75;4964469;28;20093;-73
2023/12/03 07:53:48;;;;;;;33.30;28.60;;;;;;;-1.66;80.21;98832.91;4972071;28;20030;-74
2023/12/03 07:56:14;;;;;;;39.03;24.92;;;;;;;-1.79;79.85;98821.88;4955354;28;20035;-74
2023/12/03 07:58:39;;;;;;;42.28;24.02;;;;;;;-1.71;80.47;98827.25;4967019;28;20023;-74
2023/12/03 08:01:05;;;;;;;40.28;32.00;;;;;;;-1.50;79.44;98827.75;4969752;28;20494;-74
2023/12/03 08:03:31;;;;;;;38.92;32.20;;;;;;;-1.52;79.59;98819.13;4971826;28;20031;-74
2023/12/03 08:05:56;;;;;;;43.60;28.60;;;;;;;-1.52;79.22;98823.59;4968715;28;20027;-73
2023/12/03 08:08:21;;;;;;;38.15;33.03;;;;;;;-1.42;79.79;98819.03;4955181;28;20030;-74
2023/12/03 08:10:47;;;;;;;39.40;24.05;;;;;;;-1.50;79.21;98833.03;4956009;28;20061;-74
2023/12/03 08:13:12;;;;;;;40.85;26.08;;;;;;;-1.50;79.75;98833.03;4955611;28;20042;-75
2023/12/03 08:15:37;;;;;;;44.22;27.33;;;;;;;-1.34;79.36;98842.91;4952450;28;20039;-74
2023/12/03 08:18:03;;;;;;;41.95;27.35;;;;;;;-1.31;79.77;98834.66;4948162;28;20105;-73
2023/12/03 08:20:29;;;;;;;44.30;26.02;;;;;;;-1.36;79.26;98833.47;4965730;28;20422;-74
2023/12/03 08:22:54;;;;;;;42.40;34.72;;;;;;;-1.20;79.41;98839.69;4959218;28;20062;-75
2023/12/03 08:25:19;;;;;;;38.80;33.92;;;;;;;-1.20;79.18;98839.69;4946311;28;20415;-74
2023/12/03 08:27:45;;;;;;;39.47;32.95;;;;;;;-1.32;79.14;98833.00;4972410;28;20073;-74
2023/12/03 08:30:10;;;;;;;40.85;25.60;;;;;;;-1.54;79.15;98825.56;4955600;28;20050;-74
2023/12/03 08:32:36;;;;;;;39.72;31.90;;;;;;;-1.18;78.64;98842.16;4966901;28;20038;-74
2023/12/03 08:35:01;;;;;;;37.13;31.27;;;;;;;-1.14;78.72;98848.78;4967597;28;20037;-74
2023/12/03 08:37:27;;;;;;;41.70;24.25;;;;;;;-1.30;79.42;98848.69;4954946;28;20035;-74
2023/12/03 08:39:53;;;;;;;40.22;32.30;;;;;;;-1.07;78.68;98852.47;4955097;28;20030;-74
2023/12/03 08:42:19;;;;;;;38.72;31.98;;;;;;;-1.05;78.82;98845.25;4939335;28;20041;-74
2023/12/03 08:44:45;;;;;;;35.72;30.88;;;;;;;-0.86;78.65;98864.34;4936058;28;20054;-74
2023/12/03 08:47:10;;;;;;;40.47;31.52;;;;;;;-0.76;77.53;98858.97;4956053;28;20061;-74
2023/12/03 08:49:36;;;;;;;37.28;31.73;;;;;;;-0.77;78.23;98859.97;4969320;28;20440;-74
2023/12/03 08:52:01;;;;;;;39.53;31.95;;;;;;;-0.78;77.69;98875.00;4958950;28;20029;-74
2023/12/03 08:54:27;;;;;;;37.90;24.83;;;;;;;-0.93;77.66;98878.34;4969880;28;20038;-74
2023/12/03 08:56:52;;;;;;;38.63;24.95;;;;;;;-0.87;77.44;98868.00;4971315;28;20521;-74
2023/12/03 08:59:19;;;;;;;38.90;25.23;;;;;;;-0.75;77.63;98876.50;4969189;28;20034;-74
2023/12/03 09:01:45;;;;;;;35.67;30.65;;;;;;;-0.66;78.18;98872.91;4974786;28;20030;-73
2023/12/03 09:04:12;;;;;;;42.63;32.63;;;;;;;-0.82;77.12;98859.59;4974520;28;20488;-74
2023/12/03 09:06:38;;;;;;;41.10;34.55;;;;;;;-0.62;77.39;98874.25;4974419;28;20023;-74
2023/12/03 09:09:04;;;;;;;38.30;31.85;;;;;;;-0.57;77.50;98874.59;4958852;28;20043;-74
2023/12/03 09:11:29;;;;;;;38.17;32.15;;;;;;;-0.54;76.70;98869.00;4967395;28;20027;-73
2023/12/03 09:13:54;;;;;;;44.33;27.45;;;;;;;-0.63;76.70;98856.72;4968374;28;20050;-74
2023/12/03 09:16:20;;;;;;;37.50;31.08;;;;;;;-0.46;77.27;98861.09;4968272;28;20062;-73
2023/12/03 09:18:46;;;;;;;37.75;32.58;;;;;;;-0.38;77.10;98879.66;4970030;28;20557;-72
2023/12/03 09:21:12;;;;;;;38.45;32.05;;;;;;;-0.44;76.35;98864.41;4968900;28;20026;-72
2023/12/03 09:23:38;;;;;;;47.10;37.35;;;;;;;-0.38;76.30;98874.38;4965989;28;20030;-73
2023/12/03 09:26:04;;;;;;;39.40;33.60;;;;;;;-0.30;75.70;98861.16;4940583;28;20026;-73
2023/12/03 09:28:30;;;;;;;40.15;26.48;;;;;;;-0.47;76.67;98869.22;4965818;28;20121;-72
2023/12/03 09:30:59;;;;;;;39.47;26.95;;;;;;;-0.37;76.96;98876.03;4953378;28;20031;-72
2023/12/03 09:33:28;;;;;;;39.08;31.55;;;;;;;-0.32;76.37;98883.47;4966822;28;20085;-72
2023/12/03 09:35:56;;;;;;;40.40;32.85;;;;;;;-0.27;76.78;98879.38;4972266;28;20035;-72
2023/12/03 09:38:22;;;;;;;36.10;30.85;;;;;;;-0.35;76.52;98884.63;4971382;28;20066;-72
2023/12/03 09:40:48;;;;;;;38.85;32.92;;;;;;;-0.30;76.24;98882.34;4974680;28;20030;-72
2023/12/03 09:43:17;;;;;;;39.90;32.67;;;;;;;-0.23;75.49;98887.81;4938978;28;20402;-72
2023/12/03 09:45:43;;;;;;;37.60;31.90;;;;;;;-0.22;75.39;98890.31;4956049;28;20053;-72
2023/12/03 09:48:08;;;;;;;35.53;30.38;;;;;;;-0.28;76.09;98883.00;4971906;28;20039;-71
2023/12/03 09:50:34;;;;;;;41.50;33.25;;;;;;;-0.35;75.86;98889.91;4965655;28;20591;-72
2023/12/03 09:53:02;;;;;;;37.60;31.15;;;;;;;-0.52;75.39;98877.63;4938073;28;20039;-73
2023/12/03 09:55:27;;;;;;;39.08;32.53;;;;;;;-0.45;75.90;98894.53;4971830;28;20027;-72
2023/12/03 09:57:54;;;;;;;40.15;32.90;;;;;;;-0.31;75.61;98891.28;4971159;28;20056;-72
2023/12/03 10:00:21;;;;;;;36.78;30.73;;;;;;;-0.43;75.12;98876.66;4974864;28;20468;-72
2023/12/03 10:02:50;;;;;;;40.80;33.13;;;;;;;-0.24;75.58;98886.16;4965989;28;20047;-73
2023/12/03 10:05:16;;;;;;;34.70;29.08;;;;;;;-0.15;74.43;98888.69;4964329;28;20400;-72
2023/12/03 10:07:42;;;;;;;36.88;30.88;;;;;;;-0.23;74.88;98891.28;4969566;28;20038;-72
2023/12/03 10:10:10;;;;;;;37.38;31.33;;;;;;;-0.31;74.43;98886.00;4949516;28;20058;-72
2023/12/03 10:12:42;;;;;;;39.30;31.20;;;;;;;-0.26;74.57;98889.00;4969776;28;20038;-72
2023/12/03 10:15:11;;;;;;;39.22;30.35;;;;;;;-0.33;74.53;98895.91;4967608;28;20163;-72
2023/12/03 10:17:38;;;;;;;37.78;30.42;;;;;;;-0.49;74.54;98885.22;4936437;28;20038;-72
2023/12/03 10:20:21;;;;;;;39.25;31.08;;;;;;;-0.49;75.24;98892.34;4972696;28;20394;-72
2023/12/03 10:22:47;;;;;;;44.00;27.40;;;;;;;-0.60;75.02;98889.94;4947328;28;20031;-72
2023/12/03 10:25:30;;;;;;;39.15;32.50;;;;;;;-0.39;74.87;98904.47;4968961;28;20051;-73
2023/12/03 10:27:57;;;;;;;38.30;26.10;;;;;;;-0.64;75.09;98899.19;4971387;28;20459;-72
2023/12/03 10:30:22;;;;;;;38.35;31.05;;;;;;;-0.49;74.40;98887.06;4970311;28;20034;-73
2023/12/03 10:32:48;;;;;;;38.88;32.22;;;;;;;-0.22;74.23;98900.91;4972291;28;20035;-72
2023/12/03 10:35:13;;;;;;;42.80;34.30;;;;;;;-0.09;73.74;98887.22;4970374;28;20443;-72
2023/12/03 10:37:38;;;;;;;50.20;31.08;;;;;;;-0.05;74.76;98902.59;4967321;28;20146;-72
2023/12/03 10:40:04;;;;;;;42.88;35.42;;;;;;;0.09;74.92;98903.00;4968041;28;20027;-72
2023/12/03 10:42:35;;;;;;;43.10;33.72;;;;;;;0.19;74.07;98904.50;4971626;28;20092;-74
2023/12/03 10:45:12;;;;;;;43.22;35.20;;;;;;;0.24;73.87;98896.06;4939037;28;20062;-71
2023/12/03 10:47:38;;;;;;;41.80;34.00;;;;;;;0.28;74.64;98898.22;4968463;28;20523;-71
2023/12/03 10:50:05;;;;;;;45.53;36.35;;;;;;;0.32;74.37;98904.88;4953623;28;20022;-70
2023/12/03 10:52:38;;;;;;;42.33;33.70;;;;;;;0.37;74.47;98891.16;4969967;28;20377;-71
2023/12/03 10:55:05;;;;;;;41.90;35.25;;;;;;;0.37;74.00;98885.84;4954393;28;20042;-70
2023/12/03 10:57:31;;;;;;;39.95;33.55;;;;;;;0.41;74.26;98893.31;4972522;28;20026;-71
2023/12/03 11:00:10;;;;;;;38.90;32.42;;;;;;;0.30;73.32;98890.16;4973138;28;20066;-71
2023/12/03 11:02:46;;;;;;;42.25;34.53;;;;;;;0.45;73.59;98904.41;4970681;28;20041;-71
2023/12/03 11:05:32;;;;;;;38.00;32.40;;;;;;;0.43;73.18;98895.78;4953157;28;20038;-71
2023/12/03 11:08:00;;;;;;;38.88;32.13;;;;;;;0.40;73.41;98906.69;4941224;28;20031;-71
2023/12/03 11:10:25;;;;;;;40.05;32.95;;;;;;;0.31;73.38;98910.31;4971502;28;20046;-71
2023/12/03 11:12:51;;;;;;;42.10;33.42;;;;;;;0.28;73.06;98897.44;4953397;28;20125;-71